YFE weather

Forestville Airport
Forestville, Quebec, Canada

Public forecast

Using degrees Celsius for public forecast. Weather courtesy of forecast.io.

Closest aviation weather report (METAR) to Forestville Airport

Closest report is Mont Joli Airport, 36.2 nm (67.0 km) ESE. Retrieved 2019/11/21 07:00 UTC (5 minutes ago):

CYYY 210700Z 00000KT 10SM -SN OVC019 M02/M02 A3009 RMK SC8 SLP195

Closest aviation forecast (TAF) to Forestville Airport

Closest forecast is Mont Joli Airport, 36.2 nm (67.0 km) ESE. Retrieved 2019/11/21 08:00 UTC (0 seconds ago):

TAF CYYY 210738Z 2108/2120 VRB03KT P6SM FEW006 OVC015 TEMPO 2108/2116 3SM -SN OVC006 BECMG 2110/2112 03007KT FM211600 04005KT P6SM OVC020 TEMPO 2116/2120 OVC025 BECMG 2118/2120 VRB03KT RMK NXT FCST BY 211400Z